Eastport Municipal Airport (EPM)
Eastport, ME
Field Elevation: 45
Lat: 44°54.60N  Long: 67°00.76W
CTAF/Unicom Freq: 122.8000
   
     For Weather-by-Phone, call 207-853-0682
Weather Advisories
2022-01-17   10:13 Z
Altimeter 30.06" Hg
Wind 140° @ 11 KT
Gusts 15 KT
Visibility 10 SM
Temperature -1° C (30° F)
Dewpoint -5° C (23° F)
Relative Humidity 76%
Density Altitude --
Condensation Altitude 2,000 feet
Wind Chill: -7° C (19° F)
Wind and Runways
Indicated Runway = 14
Headwind = 11 kt
Crosswind = 0 kt
History
 
 
 
More Info
NOAA Forecast
 
 
About Us
Belfort Instrument
 
 
FAA Disclaimer: The data displayed is for advisory purposes only and is not to be used for flight planning or operations. For official data, please call 207-853-0682 to hear the current automated AWOS voice message.
  METAR EPM 171013Z AUTO 14011G15KT 10 SM M01/M05 A3006